Sandia Park, NM (87047)

05:00 PM MST del 26 novembre 2014 (GMT -0700)
Mike in Sandia Knolls | Change Station
CLOSE
Current Station
Stazione meteo personale
Location: Sandia Park, NM
Altitudine: 6693 ft
Stazioni meteo nelle vicinanze

Alt. 6693 ft 35.17 °N, 106.31 °W | Updated 8 minutes ago

Sereno
Sereno
50.5 °F
Sembra 50.5 °F
N
1.0
Vento Variabile Vento da NE
Gusts 6.0 mph

Oggi
Massima -- | Minima -- °F
--% Possibilità di precip.
Ieri
Massima -- | Minima -- °F
Precip. -- in
6:50 AM 4:54 PM
Luna crescente, 24% visible
Pressione 30.27 in
Visibilità 10.0 miglia
Nuvole Alcuni 25000 ft
Punto di rugiada 22 °F
Umidità 32%
Piovosità 0.00 in
Spessore del manto nevoso Non disponibile.
Raggi UV 0 fuori da 12
Polline 2.10 fuori da 12
Qualità dell'aria Non disponibile.
Flu Activity Non disponibile.
METAR KABQ 262352Z 34011G20KT 10SM FEW250 14/M05 A3032 RMK AO2 SLP251 T01441050 10161 20094 55002

More Conditions Fewer Conditions

Pressione 30.27 in
Visibilità 10.0 miglia
Nuvole Alcuni 25000 ft
Punto di rugiada 22 °F
Umidità 32%
Piovosità 0.00 in
Spessore del manto nevoso Non disponibile.
Raggi UV 0 fuori da 12
Polline 2.10 fuori da 12
Qualità dell'aria Non disponibile.
Flu Activity Non disponibile.
METAR KABQ 262352Z 34011G20KT 10SM FEW250 14/M05 A3032 RMK AO2 SLP251 T01441050 10161 20094 55002

More Conditions Fewer Conditions

10-Day Weather Forecast

Almanac

Astronomia

Nov. 26, 2014 Alba Tramonto
Ora attuale
Crepuscolo civile
Crepuscolo nautico
Crepuscolo astronomico
Luna
Estensione della luce visibile
Lunghezza del giorno
Tomorrow will be .
, % of the Moon is Illuminated

Gli estremi di oggi

State Highs State Lows

Community

WunderPhotos

Upload Photos

1,773,926 foto caricate!

WunderBlogs® & News

Nearby

Qualità dell'aria

  Qualità dell'aria Indice AQ Inquinante
Not available.

Profondità neve

Stazione Profondità Altitudine

Attività sismica

Città  Distanza Mag. Data & Ora
Minimo Magnitudo Mostrato è 2.5.

Temperature delle acque costiere

Località Temperatura

Stazioni meteo nelle vicinanze